createdAt,value
2019-02-09T00:01:28.764Z,99296.80
2019-02-09T00:03:58.415Z,99313.77
2019-02-09T00:06:28.052Z,99309.45
2019-02-09T00:08:58.184Z,99312.06
2019-02-09T00:11:27.828Z,99310.84
2019-02-09T00:13:57.513Z,99294.27
2019-02-09T00:16:27.588Z,99294.27
2019-02-09T00:18:57.368Z,99297.69
2019-02-09T00:21:27.337Z,99279.88
2019-02-09T00:23:57.147Z,99289.48
2019-02-09T00:26:26.774Z,99289.48
2019-02-09T00:28:56.562Z,99274.67
2019-02-09T00:31:26.314Z,99252.94
2019-02-09T00:33:56.806Z,99252.94
2019-02-09T00:36:26.634Z,99259.97
2019-02-09T00:38:56.521Z,99253.41
2019-02-09T00:41:26.037Z,99250.36
2019-02-09T00:43:55.850Z,99237.33
2019-02-09T00:46:25.505Z,99237.33
2019-02-09T00:48:55.222Z,99244.23
2019-02-09T00:51:25.032Z,99247.31
2019-02-09T00:53:54.906Z,99240.70
2019-02-09T00:56:24.688Z,99240.70
2019-02-09T00:58:54.275Z,99232.11
2019-02-09T01:01:24.101Z,99229.99
2019-02-09T01:03:53.867Z,99221.28
2019-02-09T01:06:24.639Z,99221.28
2019-02-09T01:08:54.663Z,99239.05
2019-02-09T01:11:24.414Z,99227.31
2019-02-09T01:13:54.381Z,99227.31
2019-02-09T01:16:24.282Z,99215.16
2019-02-09T01:18:54.204Z,99222.56
2019-02-09T01:21:23.978Z,99204.22
2019-02-09T01:23:54.391Z,99212.95
2019-02-09T01:26:24.222Z,99205.99
2019-02-09T01:28:53.821Z,99205.99
2019-02-09T01:31:23.842Z,99200.30
2019-02-09T01:33:53.643Z,99197.72
2019-02-09T01:36:23.341Z,99185.59
2019-02-09T01:38:54.002Z,99185.59
2019-02-09T01:41:24.019Z,99201.64
2019-02-09T01:43:53.813Z,99179.44
2019-02-09T01:46:23.646Z,99179.44
2019-02-09T01:48:53.439Z,99165.55
2019-02-09T01:51:23.020Z,99165.55
2019-02-09T01:53:52.588Z,99142.52
2019-02-09T01:56:22.342Z,99141.61
2019-02-09T01:58:52.004Z,99141.61
2019-02-09T02:01:21.640Z,99146.39
2019-02-09T02:03:51.469Z,99146.39
2019-02-09T02:06:21.274Z,99134.61
2019-02-09T02:08:51.107Z,99152.05
2019-02-09T02:11:20.889Z,99120.72
2019-02-09T02:13:50.461Z,99120.72
2019-02-09T02:16:20.156Z,99113.35
2019-02-09T02:18:49.892Z,99113.35
2019-02-09T02:21:19.530Z,99107.73
2019-02-09T02:23:49.249Z,99104.25
2019-02-09T02:26:20.075Z,99078.91
2019-02-09T02:28:49.720Z,99094.10
2019-02-09T02:31:19.332Z,99094.10
2019-02-09T02:33:49.200Z,99087.67
2019-02-09T02:36:19.117Z,99087.67
2019-02-09T02:38:48.778Z,99069.80
2019-02-09T02:41:18.641Z,99077.63
2019-02-09T02:43:48.358Z,99075.89
2019-02-09T02:46:17.966Z,99051.95
2019-02-09T02:48:47.639Z,99059.78
2019-02-09T02:51:17.427Z,99051.92
2019-02-09T02:53:46.954Z,99051.92
2019-02-09T02:56:16.603Z,99039.69
2019-02-09T02:58:46.389Z,99044.02
2019-02-09T03:01:15.947Z,99047.53
2019-02-09T03:03:45.669Z,99034.94
2019-02-09T03:06:15.445Z,99042.30
2019-02-09T03:08:45.037Z,99035.77
2019-02-09T03:11:14.784Z,99031.86
2019-02-09T03:13:44.366Z,99029.13
2019-02-09T03:16:14.130Z,99041.83
2019-02-09T03:18:43.847Z,99006.58
2019-02-09T03:21:13.376Z,99006.98
2019-02-09T03:23:43.060Z,99006.98
2019-02-09T03:26:13.185Z,98998.74
2019-02-09T03:28:42.942Z,98998.27
2019-02-09T03:31:12.522Z,98994.83
2019-02-09T03:33:42.521Z,98994.83
2019-02-09T03:36:12.260Z,98992.22
2019-02-09T03:38:42.101Z,98984.38
2019-02-09T03:41:12.172Z,98977.02
2019-02-09T03:43:42.188Z,98957.79
2019-02-09T03:46:11.965Z,98957.79
2019-02-09T03:48:41.838Z,98976.94
2019-02-09T03:51:11.458Z,98979.63
2019-02-09T03:53:41.265Z,98963.48
2019-02-09T03:56:11.426Z,98972.20
2019-02-09T03:58:41.350Z,98954.75
2019-02-09T04:01:11.202Z,98956.44
2019-02-09T04:03:41.178Z,98962.58
2019-02-09T04:06:11.101Z,98953.04
2019-02-09T04:08:41.159Z,98940.78
2019-02-09T04:11:11.245Z,98947.38
2019-02-09T04:13:40.974Z,98947.46
2019-02-09T04:16:10.683Z,98937.84
2019-02-09T04:18:40.479Z,98937.41
2019-02-09T04:21:10.287Z,98937.84
2019-02-09T04:23:40.138Z,98936.06
2019-02-09T04:26:10.096Z,98922.58
2019-02-09T04:28:39.866Z,98923.95
2019-02-09T04:31:09.914Z,98923.95
2019-02-09T04:33:39.809Z,98926.61
2019-02-09T04:36:09.519Z,98921.27
2019-02-09T04:38:39.123Z,98916.95
2019-02-09T04:41:09.010Z,98921.79
2019-02-09T04:43:38.739Z,98924.83
2019-02-09T04:46:08.835Z,98917.03
2019-02-09T04:48:38.701Z,98914.43
2019-02-09T04:51:08.339Z,98902.24
2019-02-09T04:53:37.950Z,98899.59
2019-02-09T04:56:07.654Z,98899.59
2019-02-09T04:58:37.260Z,98899.67
2019-02-09T05:01:13.791Z,98899.67
2019-02-09T05:03:40.054Z,98895.28
2019-02-09T05:06:09.880Z,98892.75
2019-02-09T05:08:39.663Z,98901.94
2019-02-09T05:11:09.635Z,98893.70
2019-02-09T05:13:39.430Z,98895.45
2019-02-09T05:16:09.128Z,98894.58
2019-02-09T05:18:38.912Z,98880.22
2019-02-09T05:21:08.445Z,98886.87
2019-02-09T05:23:38.281Z,98892.92
2019-02-09T05:26:07.939Z,98892.92
2019-02-09T05:28:37.513Z,98881.57
2019-02-09T05:31:07.175Z,98881.57
2019-02-09T05:33:37.337Z,98879.08
2019-02-09T05:36:07.005Z,98879.08
2019-02-09T05:38:36.597Z,98879.12
2019-02-09T05:41:06.462Z,98894.78
2019-02-09T05:43:37.388Z,98869.11
2019-02-09T05:46:07.237Z,98869.11
2019-02-09T05:48:36.904Z,98882.60
2019-02-09T05:51:06.496Z,98883.34
2019-02-09T05:53:36.155Z,98878.25
2019-02-09T05:56:06.104Z,98878.25
2019-02-09T05:58:35.701Z,98882.16
2019-02-09T06:01:05.594Z,98876.94
2019-02-09T06:03:35.106Z,98885.17
2019-02-09T06:06:04.899Z,98875.68
2019-02-09T06:08:34.810Z,98876.62
2019-02-09T06:11:04.514Z,98876.62
2019-02-09T06:13:34.022Z,98882.76
2019-02-09T06:16:03.900Z,98882.76
2019-02-09T06:18:33.545Z,98718.22
2019-02-09T06:21:03.320Z,98718.22
2019-02-09T06:23:32.983Z,98885.88
2019-02-09T06:26:03.731Z,98885.88
2019-02-09T06:28:33.387Z,98890.59
2019-02-09T06:31:03.431Z,98891.53
2019-02-09T06:33:32.951Z,98891.53
2019-02-09T06:36:02.938Z,98887.66
2019-02-09T06:38:32.803Z,98895.84
2019-02-09T06:41:02.427Z,98903.59
2019-02-09T06:43:32.237Z,98899.21
2019-02-09T06:46:02.004Z,98897.03
2019-02-09T06:48:32.068Z,98903.59
2019-02-09T06:51:03.942Z,98903.59
2019-02-09T06:53:33.957Z,98909.17
2019-02-09T06:56:03.813Z,98893.59
2019-02-09T06:58:33.568Z,98882.72
2019-02-09T07:01:03.438Z,98885.22
2019-02-09T07:03:33.125Z,98886.59
2019-02-09T07:06:02.809Z,98886.59
2019-02-09T07:08:32.620Z,98891.34
2019-02-09T07:11:02.390Z,98894.82
2019-02-09T07:13:32.041Z,98886.12
2019-02-09T07:16:01.887Z,98892.28
2019-02-09T07:18:31.463Z,98892.28
2019-02-09T07:21:01.215Z,98890.03
2019-02-09T07:23:31.033Z,98893.95
2019-02-09T07:26:00.645Z,98893.12
2019-02-09T07:28:33.428Z,98884.38
2019-02-09T07:31:03.367Z,98884.38
2019-02-09T07:33:33.094Z,98892.17
2019-02-09T07:36:02.830Z,98875.20
2019-02-09T07:38:32.503Z,98875.20
2019-02-09T07:41:02.189Z,98882.95
2019-02-09T07:43:31.996Z,98882.99
2019-02-09T07:46:01.666Z,98868.59
2019-02-09T07:48:31.432Z,98882.56
2019-02-09T07:51:01.468Z,98882.56
2019-02-09T07:53:31.268Z,98876.52
2019-02-09T07:56:00.903Z,98879.95
2019-02-09T07:58:30.681Z,98876.47
2019-02-09T08:01:00.293Z,98877.25
2019-02-09T08:03:30.065Z,98886.79
2019-02-09T08:06:00.221Z,98886.79
2019-02-09T08:08:29.750Z,98876.82
2019-02-09T08:10:59.220Z,98876.82
2019-02-09T08:13:28.911Z,98888.09
2019-02-09T08:15:58.604Z,98874.59
2019-02-09T08:18:28.191Z,98874.59
2019-02-09T08:20:57.930Z,98873.65
2019-02-09T08:23:27.921Z,98868.91
2019-02-09T08:25:57.724Z,98873.65
2019-02-09T08:28:27.443Z,98873.65
2019-02-09T08:30:57.158Z,98877.92
2019-02-09T08:33:26.859Z,98877.05
2019-02-09T08:35:56.656Z,98873.65
2019-02-09T08:38:26.332Z,98872.30
2019-02-09T08:40:56.247Z,98721.61
2019-02-09T08:43:25.906Z,98877.60
2019-02-09T08:45:55.585Z,98879.30
2019-02-09T08:48:25.260Z,98887.53
2019-02-09T08:51:01.632Z,98890.89
2019-02-09T08:53:31.372Z,98890.89
2019-02-09T08:56:01.125Z,98879.92
2019-02-09T08:58:30.916Z,98879.92
2019-02-09T09:01:00.705Z,98874.61
2019-02-09T09:03:30.430Z,98881.48
2019-02-09T09:06:00.300Z,98873.69
2019-02-09T09:08:29.933Z,98875.09
2019-02-09T09:11:01.378Z,98875.09
2019-02-09T09:13:31.385Z,98885.45
2019-02-09T09:16:02.457Z,98884.49
2019-02-09T09:18:32.385Z,98887.05
2019-02-09T09:21:03.569Z,98888.31
2019-02-09T09:23:33.425Z,98881.05
2019-02-09T09:26:03.073Z,98884.09
2019-02-09T09:28:33.124Z,98892.28
2019-02-09T09:31:02.939Z,98892.28
2019-02-09T09:33:32.883Z,98886.97
2019-02-09T09:36:03.138Z,98886.97
2019-02-09T09:38:33.135Z,98878.30
2019-02-09T09:41:02.836Z,98896.16
2019-02-09T09:43:34.145Z,98891.88
2019-02-09T09:46:04.107Z,98894.02
2019-02-09T09:48:33.727Z,98900.12
2019-02-09T09:51:03.625Z,98889.19
2019-02-09T09:53:33.578Z,98885.43
2019-02-09T09:56:03.181Z,98898.84
2019-02-09T09:58:32.910Z,98898.84
2019-02-09T10:01:02.717Z,98891.38
2019-02-09T10:03:32.753Z,98894.20
2019-02-09T10:06:11.278Z,98900.05
2019-02-09T10:08:42.914Z,98893.22
2019-02-09T10:11:15.440Z,98904.98
2019-02-09T10:13:46.043Z,98883.98
2019-02-09T10:16:16.257Z,98893.38
2019-02-09T10:18:46.044Z,98893.38
2019-02-09T10:21:15.809Z,98882.05
2019-02-09T10:23:45.582Z,98881.75
2019-02-09T10:26:15.232Z,98884.89
2019-02-09T10:28:44.885Z,98882.77
2019-02-09T10:31:14.782Z,98891.13
2019-02-09T10:33:44.450Z,98891.13
2019-02-09T10:36:14.269Z,98891.13
2019-02-09T10:38:44.111Z,98893.27
2019-02-09T10:41:13.795Z,98901.41
2019-02-09T10:43:45.961Z,98880.73
2019-02-09T10:46:16.475Z,98898.94
2019-02-09T10:48:46.091Z,98889.70
2019-02-09T10:51:15.979Z,98877.44
2019-02-09T10:53:45.674Z,98884.09
2019-02-09T10:56:15.416Z,98874.16
2019-02-09T10:58:45.215Z,98876.47
2019-02-09T11:01:17.869Z,98876.00
2019-02-09T11:03:47.823Z,98867.14
2019-02-09T11:06:17.854Z,98757.13
2019-02-09T11:08:47.537Z,98757.13
2019-02-09T11:11:17.499Z,98872.08
2019-02-09T11:13:47.238Z,98872.52
2019-02-09T11:16:16.971Z,98874.44
2019-02-09T11:18:46.884Z,98872.70
2019-02-09T11:21:16.719Z,98867.97
2019-02-09T11:23:46.366Z,98873.96
2019-02-09T11:26:16.036Z,98872.70
2019-02-09T11:28:45.803Z,98872.70
2019-02-09T11:31:15.640Z,98862.69
2019-02-09T11:33:45.723Z,98862.69
2019-02-09T11:36:15.645Z,98863.64
2019-02-09T11:38:45.512Z,98873.86
2019-02-09T11:41:15.292Z,98862.63
2019-02-09T11:43:45.264Z,98862.55
2019-02-09T11:46:15.087Z,98864.23
2019-02-09T11:48:44.753Z,98864.52
2019-02-09T11:51:14.708Z,98860.78
2019-02-09T11:53:44.500Z,98861.61
2019-02-09T11:56:14.225Z,98856.88
2019-02-09T11:58:43.954Z,98851.88
2019-02-09T12:01:13.522Z,98850.73
2019-02-09T12:03:43.125Z,98850.73
2019-02-09T12:06:12.972Z,98854.95
2019-02-09T12:08:42.566Z,98857.56
2019-02-09T12:11:12.428Z,98852.08
2019-02-09T12:13:42.391Z,98839.62
2019-02-09T12:16:12.305Z,98838.58
2019-02-09T12:18:42.250Z,98846.85
2019-02-09T12:21:12.254Z,98837.27
2019-02-09T12:23:42.065Z,98829.55
2019-02-09T12:26:12.191Z,98825.34
2019-02-09T12:28:42.230Z,98849.41
2019-02-09T12:31:12.150Z,98834.59
2019-02-09T12:33:42.029Z,98839.98
2019-02-09T12:36:12.010Z,98831.17
2019-02-09T12:38:41.629Z,98831.17
2019-02-09T12:41:11.605Z,98829.04
2019-02-09T12:43:41.609Z,98829.04
2019-02-09T12:46:11.361Z,98833.61
2019-02-09T12:48:41.181Z,98833.61
2019-02-09T12:51:11.206Z,98834.86
2019-02-09T12:53:41.006Z,98830.89
2019-02-09T12:56:11.113Z,98836.08
2019-02-09T12:58:40.882Z,98843.81
2019-02-09T13:01:11.131Z,98833.56
2019-02-09T13:03:41.436Z,98823.50
2019-02-09T13:06:11.347Z,98828.83
2019-02-09T13:08:40.995Z,98820.27
2019-02-09T13:11:11.077Z,98817.33
2019-02-09T13:13:41.141Z,98807.08
2019-02-09T13:16:11.038Z,98805.19
2019-02-09T13:18:41.233Z,98805.19
2019-02-09T13:21:11.098Z,98804.09
2019-02-09T13:23:41.176Z,98801.84
2019-02-09T13:26:11.275Z,98801.80
2019-02-09T13:28:41.248Z,98789.66
2019-02-09T13:31:11.092Z,98788.13
2019-02-09T13:33:41.177Z,98790.75
2019-02-09T13:36:10.930Z,98773.27
2019-02-09T13:38:41.055Z,98771.39
2019-02-09T13:41:11.078Z,98771.39
2019-02-09T13:43:41.133Z,98771.63
2019-02-09T13:46:11.292Z,98613.66
2019-02-09T13:48:41.364Z,98760.59
2019-02-09T13:51:11.496Z,98756.21
2019-02-09T13:53:41.362Z,98755.45
2019-02-09T13:56:11.394Z,98748.55
2019-02-09T13:58:41.373Z,98739.01
2019-02-09T14:01:11.546Z,98738.35
2019-02-09T14:03:46.697Z,98740.64
2019-02-09T14:06:13.046Z,98741.13
2019-02-09T14:08:42.670Z,98737.44
2019-02-09T14:11:12.507Z,98733.20
2019-02-09T14:13:42.486Z,98726.66
2019-02-09T14:16:12.411Z,98725.35
2019-02-09T14:18:42.092Z,98725.35
2019-02-09T14:21:13.256Z,98732.81
2019-02-09T14:23:42.949Z,98723.66
2019-02-09T14:26:12.702Z,98705.70
2019-02-09T14:28:45.395Z,98716.58
2019-02-09T14:31:15.035Z,98716.70
2019-02-09T14:33:44.668Z,98702.81
2019-02-09T14:36:14.676Z,98706.24
2019-02-09T14:38:44.394Z,98691.17
2019-02-09T14:41:14.086Z,98694.42
2019-02-09T14:43:44.117Z,98689.95
2019-02-09T14:46:13.777Z,98674.34
2019-02-09T14:48:43.477Z,98657.09
2019-02-09T14:51:13.271Z,98670.74
2019-02-09T14:53:42.890Z,98661.55
2019-02-09T14:56:12.653Z,98664.20
2019-02-09T14:58:42.773Z,98670.05
2019-02-09T15:01:12.566Z,98644.84
2019-02-09T15:03:42.481Z,98638.86
2019-02-09T15:06:12.327Z,98642.44
2019-02-09T15:08:42.223Z,98648.48
2019-02-09T15:11:12.039Z,98651.27
2019-02-09T15:13:42.002Z,98640.98
2019-02-09T15:16:31.024Z,98646.14
2019-02-09T15:19:00.851Z,98630.63
2019-02-09T15:21:30.502Z,98618.50
2019-02-09T15:24:00.210Z,98629.83
2019-02-09T15:26:30.123Z,98634.13
2019-02-09T15:29:00.015Z,98621.66
2019-02-09T15:31:29.679Z,98618.82
2019-02-09T15:33:59.480Z,98616.37
2019-02-09T15:36:29.202Z,98606.08
2019-02-09T15:38:59.099Z,98597.72
2019-02-09T15:41:28.966Z,98596.80
2019-02-09T15:43:58.729Z,98599.90
2019-02-09T15:46:28.673Z,98594.67
2019-02-09T15:48:58.651Z,98594.67
2019-02-09T15:51:28.173Z,98586.84
2019-02-09T15:53:57.848Z,98595.50
2019-02-09T15:56:27.696Z,98586.84
2019-02-09T15:58:57.365Z,98572.92
2019-02-09T16:01:27.192Z,98572.44
2019-02-09T16:03:57.204Z,98572.44
2019-02-09T16:06:26.989Z,98571.33
2019-02-09T16:08:56.729Z,98571.33
2019-02-09T16:11:26.855Z,98562.14
2019-02-09T16:13:56.517Z,98557.70
2019-02-09T16:16:26.168Z,98557.70
2019-02-09T16:18:56.361Z,98550.73
2019-02-09T16:21:26.086Z,98401.95
2019-02-09T16:23:55.754Z,98535.95
2019-02-09T16:26:25.795Z,98535.95
2019-02-09T16:28:55.759Z,98551.65
2019-02-09T16:31:25.653Z,98543.97
2019-02-09T16:33:55.595Z,98543.97
2019-02-09T16:36:25.437Z,98543.81
2019-02-09T16:38:55.179Z,98514.79
2019-02-09T16:41:25.207Z,98534.35
2019-02-09T16:43:54.908Z,98538.70
2019-02-09T16:46:24.888Z,98544.19
2019-02-09T16:48:54.530Z,98539.08
2019-02-09T16:51:24.739Z,98536.76
2019-02-09T16:53:54.432Z,98533.67
2019-02-09T16:56:24.247Z,98522.85
2019-02-09T16:58:53.867Z,98510.83
2019-02-09T17:01:23.793Z,98523.91
2019-02-09T17:03:53.609Z,98505.61
2019-02-09T17:06:23.436Z,98505.61
2019-02-09T17:08:53.183Z,98517.80
2019-02-09T17:11:23.060Z,98501.38
2019-02-09T17:13:52.604Z,98516.92
2019-02-09T17:16:22.665Z,98499.44
2019-02-09T17:18:52.514Z,98371.98
2019-02-09T17:21:22.254Z,98371.98
2019-02-09T17:23:51.875Z,98510.58
2019-02-09T17:26:21.844Z,98519.76
2019-02-09T17:28:51.538Z,98486.70
2019-02-09T17:31:21.439Z,98494.42
2019-02-09T17:33:51.300Z,98494.42
2019-02-09T17:36:21.157Z,98489.02
2019-02-09T17:38:51.010Z,98489.02
2019-02-09T17:41:20.973Z,98488.19
2019-02-09T17:43:50.600Z,98473.91
2019-02-09T17:46:20.292Z,98478.64
2019-02-09T17:48:50.144Z,98488.63
2019-02-09T17:51:20.003Z,98475.45
2019-02-09T17:53:49.736Z,98484.04
2019-02-09T17:56:19.457Z,98473.23
2019-02-09T17:58:49.049Z,98473.23
2019-02-09T18:01:18.661Z,98466.56
2019-02-09T18:03:48.534Z,98475.20
2019-02-09T18:06:18.129Z,98475.30
2019-02-09T18:08:47.911Z,98471.88
2019-02-09T18:11:17.669Z,98471.88
2019-02-09T18:13:47.260Z,98465.80
2019-02-09T18:16:17.140Z,98465.80
2019-02-09T18:18:46.762Z,98473.95
2019-02-09T18:21:16.505Z,98471.39
2019-02-09T18:23:46.403Z,98471.39
2019-02-09T18:26:15.999Z,98470.53
2019-02-09T18:28:45.702Z,98464.35
2019-02-09T18:31:15.589Z,98462.99
2019-02-09T18:33:45.214Z,98462.12
2019-02-09T18:36:14.963Z,98462.12
2019-02-09T18:38:46.603Z,98460.28
2019-02-09T18:41:16.270Z,98460.23
2019-02-09T18:43:45.930Z,98451.55
2019-02-09T18:46:15.848Z,98451.55
2019-02-09T18:48:45.697Z,98460.41
2019-02-09T18:51:15.338Z,98456.05
2019-02-09T18:53:45.313Z,98463.72
2019-02-09T18:56:15.352Z,98468.89
2019-02-09T18:58:45.032Z,98468.89
2019-02-09T19:01:14.875Z,98465.31
2019-02-09T19:03:44.401Z,98475.26
2019-02-09T19:06:13.979Z,98475.26
2019-02-09T19:08:43.740Z,98479.17
2019-02-09T19:11:13.576Z,98483.06
2019-02-09T19:13:43.273Z,98479.47
2019-02-09T19:16:13.084Z,98473.33
2019-02-09T19:18:42.780Z,98479.24
2019-02-09T19:21:15.190Z,98482.61
2019-02-09T19:23:44.896Z,98482.61
2019-02-09T19:26:14.869Z,98495.98
2019-02-09T19:28:44.828Z,98494.69
2019-02-09T19:31:14.589Z,98492.45
2019-02-09T19:33:44.221Z,98494.30
2019-02-09T19:36:14.331Z,98499.91
2019-02-09T19:38:43.992Z,98508.16
2019-02-09T19:41:14.033Z,98508.16
2019-02-09T19:43:43.739Z,98512.18
2019-02-09T19:46:13.422Z,98512.18
2019-02-09T19:48:43.090Z,98520.78
2019-02-09T19:51:12.894Z,98523.27
2019-02-09T19:53:42.616Z,98523.27
2019-02-09T19:56:12.702Z,98523.06
2019-02-09T19:58:42.546Z,98523.06
2019-02-09T20:01:12.546Z,98526.00
2019-02-09T20:03:42.567Z,98534.59
2019-02-09T20:06:12.431Z,98532.09
2019-02-09T20:08:42.436Z,98532.09
2019-02-09T20:11:12.339Z,98543.34
2019-02-09T20:13:44.402Z,98546.83
2019-02-09T20:16:15.710Z,98546.83
2019-02-09T20:18:45.638Z,98553.30
2019-02-09T20:21:15.293Z,98566.06
2019-02-09T20:23:45.081Z,98562.20
2019-02-09T20:26:14.748Z,98555.30
2019-02-09T20:28:44.964Z,98570.85
2019-02-09T20:31:14.755Z,98567.64
2019-02-09T20:33:44.383Z,98576.30
2019-02-09T20:36:14.431Z,98582.39
2019-02-09T20:38:44.214Z,98574.08
2019-02-09T20:41:14.041Z,98574.08
2019-02-09T20:43:44.103Z,98583.16
2019-02-09T20:46:13.843Z,98585.70
2019-02-09T20:48:43.503Z,98582.22
2019-02-09T20:51:13.363Z,98582.22
2019-02-09T20:53:43.156Z,98588.36
2019-02-09T20:56:12.988Z,98593.16
2019-02-09T20:58:42.904Z,98587.34
2019-02-09T21:01:12.776Z,98432.39
2019-02-09T21:03:42.682Z,98421.65
2019-02-09T21:06:12.552Z,98580.55
2019-02-09T21:08:42.391Z,98586.84
2019-02-09T21:11:12.442Z,98586.84
2019-02-09T21:13:42.483Z,98588.16
2019-02-09T21:16:12.438Z,98589.34
2019-02-09T21:18:42.223Z,98595.05
2019-02-09T21:21:12.322Z,98604.23
2019-02-09T21:23:42.151Z,98611.48
2019-02-09T21:26:12.020Z,98611.48
2019-02-09T21:28:42.212Z,98603.64
2019-02-09T21:31:12.308Z,98614.48
2019-02-09T21:33:42.185Z,98604.96
2019-02-09T21:36:12.366Z,98604.96
2019-02-09T21:38:42.255Z,98621.48
2019-02-09T21:41:12.308Z,98621.59
2019-02-09T21:43:42.625Z,98635.52
2019-02-09T21:46:12.807Z,98635.52
2019-02-09T21:48:42.614Z,98645.03
2019-02-09T21:51:12.507Z,98488.77
2019-02-09T21:53:42.839Z,98648.61
2019-02-09T21:56:12.569Z,98648.61
2019-02-09T21:58:42.533Z,98649.97
2019-02-09T22:01:12.662Z,98662.67
2019-02-09T22:03:42.873Z,98655.72
2019-02-09T22:06:12.734Z,98509.70
2019-02-09T22:08:43.003Z,98509.70
2019-02-09T22:11:12.784Z,98672.20
2019-02-09T22:13:42.542Z,98674.37
2019-02-09T22:16:12.768Z,98674.37
2019-02-09T22:18:42.971Z,98674.47
2019-02-09T22:21:12.961Z,98683.89
2019-02-09T22:23:43.148Z,98690.77
2019-02-09T22:26:13.516Z,98695.59
2019-02-09T22:28:43.324Z,98695.59
2019-02-09T22:31:21.531Z,98699.16
2019-02-09T22:33:44.890Z,98696.59
2019-02-09T22:36:14.746Z,98701.34
2019-02-09T22:38:44.419Z,98712.60
2019-02-09T22:41:14.163Z,98721.73
2019-02-09T22:43:43.921Z,98721.73
2019-02-09T22:46:13.657Z,98716.47
2019-02-09T22:48:43.370Z,98721.73
2019-02-09T22:51:13.202Z,98721.73
2019-02-09T22:53:42.857Z,98736.34
2019-02-09T22:56:12.871Z,98736.34
2019-02-09T22:58:42.716Z,98589.66
2019-02-09T23:01:26.926Z,98738.90
2019-02-09T23:04:37.408Z,98751.05
2019-02-09T23:07:15.389Z,98751.05
2019-02-09T23:09:45.167Z,98744.07
2019-02-09T23:12:14.812Z,98754.03
2019-02-09T23:14:44.751Z,98751.42
2019-02-09T23:17:14.587Z,98753.55
2019-02-09T23:19:44.545Z,98770.56
2019-02-09T23:22:14.151Z,98768.79
2019-02-09T23:24:44.037Z,98760.56
2019-02-09T23:27:13.808Z,98771.34
2019-02-09T23:29:43.402Z,98772.61
2019-02-09T23:32:13.225Z,98775.74
2019-02-09T23:34:43.074Z,98775.74
2019-02-09T23:37:12.728Z,98797.37
2019-02-09T23:39:42.676Z,98797.37
2019-02-09T23:42:12.654Z,98796.00
2019-02-09T23:44:42.448Z,98790.69
2019-02-09T23:47:12.268Z,98790.69
2019-02-09T23:49:42.379Z,98802.93
2019-02-09T23:52:12.418Z,98808.05
2019-02-09T23:54:42.513Z,98812.27
2019-02-09T23:57:12.670Z,98812.27
2019-02-09T23:59:42.556Z,98821.81
